sensor_id;sensor_type;location;lat;lon;timestamp;pressure;altitude;pressure_sealevel;temperature
12126;BMP180;6126;57.908;16.490;2023-05-06T00:01:10;103025.00;;;-1.72
12126;BMP180;6126;57.908;16.490;2023-05-06T00:03:40;103040.09;;;-1.79
12126;BMP180;6126;57.908;16.490;2023-05-06T00:06:06;103033.94;;;-1.83
12126;BMP180;6126;57.908;16.490;2023-05-06T00:08:34;103041.50;;;-1.85
12126;BMP180;6126;57.908;16.490;2023-05-06T00:11:00;103039.47;;;-1.92
12126;BMP180;6126;57.908;16.490;2023-05-06T00:13:26;103047.13;;;-1.94
12126;BMP180;6126;57.908;16.490;2023-05-06T00:15:52;103052.38;;;-1.91
12126;BMP180;6126;57.908;16.490;2023-05-06T00:18:18;103043.59;;;-1.96
12126;BMP180;6126;57.908;16.490;2023-05-06T00:20:47;103035.47;;;-2.06
12126;BMP180;6126;57.908;16.490;2023-05-06T00:23:12;103038.38;;;-2.17
12126;BMP180;6126;57.908;16.490;2023-05-06T00:25:38;103034.63;;;-2.25
12126;BMP180;6126;57.908;16.490;2023-05-06T00:28:04;103030.34;;;-2.25
12126;BMP180;6126;57.908;16.490;2023-05-06T00:30:30;103038.16;;;-2.22
12126;BMP180;6126;57.908;16.490;2023-05-06T00:32:56;103026.31;;;-2.20
12126;BMP180;6126;57.908;16.490;2023-05-06T00:35:22;103037.31;;;-2.22
12126;BMP180;6126;57.908;16.490;2023-05-06T00:38:15;103037.91;;;-2.28
12126;BMP180;6126;57.908;16.490;2023-05-06T00:40:41;103042.91;;;-2.31
12126;BMP180;6126;57.908;16.490;2023-05-06T00:43:07;103033.28;;;-2.36
12126;BMP180;6126;57.908;16.490;2023-05-06T00:45:34;103038.97;;;-2.42
12126;BMP180;6126;57.908;16.490;2023-05-06T00:48:00;103036.09;;;-2.49
12126;BMP180;6126;57.908;16.490;2023-05-06T00:50:27;103040.88;;;-2.56
12126;BMP180;6126;57.908;16.490;2023-05-06T00:52:57;103043.16;;;-2.62
12126;BMP180;6126;57.908;16.490;2023-05-06T00:55:24;103041.16;;;-2.68
12126;BMP180;6126;57.908;16.490;2023-05-06T00:57:51;103039.34;;;-2.70
12126;BMP180;6126;57.908;16.490;2023-05-06T01:00:19;103039.50;;;-2.67
12126;BMP180;6126;57.908;16.490;2023-05-06T01:02:46;103034.44;;;-2.66
12126;BMP180;6126;57.908;16.490;2023-05-06T01:05:15;103040.38;;;-2.67
12126;BMP180;6126;57.908;16.490;2023-05-06T01:08:12;103035.25;;;-2.67
12126;BMP180;6126;57.908;16.490;2023-05-06T01:11:00;103043.00;;;-2.65
12126;BMP180;6126;57.908;16.490;2023-05-06T01:16:04;103058.16;;;-2.70
12126;BMP180;6126;57.908;16.490;2023-05-06T01:18:32;103053.03;;;-2.70
12126;BMP180;6126;57.908;16.490;2023-05-06T01:20:59;103054.28;;;-2.62
12126;BMP180;6126;57.908;16.490;2023-05-06T01:23:26;103050.97;;;-2.59
12126;BMP180;6126;57.908;16.490;2023-05-06T01:25:52;103047.81;;;-2.54
12126;BMP180;6126;57.908;16.490;2023-05-06T01:28:18;103057.22;;;-2.53
12126;BMP180;6126;57.908;16.490;2023-05-06T01:33:48;103047.38;;;-2.63
12126;BMP180;6126;57.908;16.490;2023-05-06T01:36:31;103049.06;;;-2.63
12126;BMP180;6126;57.908;16.490;2023-05-06T01:39:21;103056.75;;;-2.63
12126;BMP180;6126;57.908;16.490;2023-05-06T01:41:53;103049.16;;;-2.62
12126;BMP180;6126;57.908;16.490;2023-05-06T01:44:21;103048.31;;;-2.61
12126;BMP180;6126;57.908;16.490;2023-05-06T01:46:50;103050.06;;;-2.60
12126;BMP180;6126;57.908;16.490;2023-05-06T01:49:18;103056.88;;;-2.60
12126;BMP180;6126;57.908;16.490;2023-05-06T01:51:49;103048.06;;;-2.67
12126;BMP180;6126;57.908;16.490;2023-05-06T01:54:16;103046.97;;;-2.72
12126;BMP180;6126;57.908;16.490;2023-05-06T01:56:42;103054.44;;;-2.76
12126;BMP180;6126;57.908;16.490;2023-05-06T01:59:08;103049.16;;;-2.79
12126;BMP180;6126;57.908;16.490;2023-05-06T02:01:33;103062.06;;;-2.77
12126;BMP180;6126;57.908;16.490;2023-05-06T02:04:00;103057.06;;;-2.75
12126;BMP180;6126;57.908;16.490;2023-05-06T02:06:25;103048.56;;;-2.74
12126;BMP180;6126;57.908;16.490;2023-05-06T02:08:52;103057.22;;;-2.72
12126;BMP180;6126;57.908;16.490;2023-05-06T02:11:18;103049.53;;;-2.72
12126;BMP180;6126;57.908;16.490;2023-05-06T02:13:44;103046.00;;;-2.74
12126;BMP180;6126;57.908;16.490;2023-05-06T02:16:10;103044.78;;;-2.81
12126;BMP180;6126;57.908;16.490;2023-05-06T02:18:36;103038.53;;;-2.88
12126;BMP180;6126;57.908;16.490;2023-05-06T02:21:02;103049.41;;;-2.92
12126;BMP180;6126;57.908;16.490;2023-05-06T02:23:28;103040.63;;;-2.97
12126;BMP180;6126;57.908;16.490;2023-05-06T02:25:54;103042.31;;;-2.97
12126;BMP180;6126;57.908;16.490;2023-05-06T02:28:22;103050.22;;;-2.93
12126;BMP180;6126;57.908;16.490;2023-05-06T02:30:53;103052.84;;;-2.91
12126;BMP180;6126;57.908;16.490;2023-05-06T02:33:19;103051.97;;;-2.92
12126;BMP180;6126;57.908;16.490;2023-05-06T02:35:46;103050.38;;;-2.90
12126;BMP180;6126;57.908;16.490;2023-05-06T02:38:12;103039.84;;;-2.96
12126;BMP180;6126;57.908;16.490;2023-05-06T02:40:38;103046.44;;;-3.01
12126;BMP180;6126;57.908;16.490;2023-05-06T02:43:03;103053.25;;;-3.01
12126;BMP180;6126;57.908;16.490;2023-05-06T02:45:29;103044.88;;;-2.97
12126;BMP180;6126;57.908;16.490;2023-05-06T02:47:55;103045.75;;;-2.97
12126;BMP180;6126;57.908;16.490;2023-05-06T02:50:21;103042.31;;;-2.97
12126;BMP180;6126;57.908;16.490;2023-05-06T02:52:47;103046.72;;;-2.95
12126;BMP180;6126;57.908;16.490;2023-05-06T02:55:13;103055.34;;;-2.93
12126;BMP180;6126;57.908;16.490;2023-05-06T02:57:39;103057.09;;;-2.92
12126;BMP180;6126;57.908;16.490;2023-05-06T03:00:05;103056.22;;;-2.92
12126;BMP180;6126;57.908;16.490;2023-05-06T03:02:31;103063.66;;;-2.97
12126;BMP180;6126;57.908;16.490;2023-05-06T03:04:57;103059.38;;;-2.98
12126;BMP180;6126;57.908;16.490;2023-05-06T03:07:23;103048.16;;;-3.00
12126;BMP180;6126;57.908;16.490;2023-05-06T03:09:49;103060.97;;;-3.00
12126;BMP180;6126;57.908;16.490;2023-05-06T03:12:15;103063.63;;;-2.98
12126;BMP180;6126;57.908;16.490;2023-05-06T03:14:41;103076.47;;;-2.97
12126;BMP180;6126;57.908;16.490;2023-05-06T03:17:07;103077.56;;;-2.92
12126;BMP180;6126;57.908;16.490;2023-05-06T03:19:33;103080.34;;;-2.87
12126;BMP180;6126;57.908;16.490;2023-05-06T03:21:59;103076.44;;;-2.79
12126;BMP180;6126;57.908;16.490;2023-05-06T03:24:25;103075.94;;;-2.73
12126;BMP180;6126;57.908;16.490;2023-05-06T03:26:51;103079.56;;;-2.68
12126;BMP180;6126;57.908;16.490;2023-05-06T03:29:16;103070.53;;;-2.60
12126;BMP180;6126;57.908;16.490;2023-05-06T03:31:42;103079.53;;;-2.50
12126;BMP180;6126;57.908;16.490;2023-05-06T03:34:08;103083.19;;;-2.46
12126;BMP180;6126;57.908;16.490;2023-05-06T03:36:34;103072.56;;;-2.36
12126;BMP180;6126;57.908;16.490;2023-05-06T03:39:00;103084.16;;;-2.25
12126;BMP180;6126;57.908;16.490;2023-05-06T03:41:26;103086.94;;;-2.20
12126;BMP180;6126;57.908;16.490;2023-05-06T03:43:52;103076.41;;;-2.08
12126;BMP180;6126;57.908;16.490;2023-05-06T03:46:20;103082.13;;;-1.94
12126;BMP180;6126;57.908;16.490;2023-05-06T03:48:46;103085.19;;;-1.83
12126;BMP180;6126;57.908;16.490;2023-05-06T03:51:12;103075.63;;;-1.48
12126;BMP180;6126;57.908;16.490;2023-05-06T03:53:38;103079.88;;;-1.08
12126;BMP180;6126;57.908;16.490;2023-05-06T03:56:04;103086.47;;;-0.72
12126;BMP180;6126;57.908;16.490;2023-05-06T03:58:30;103078.28;;;-0.41
12126;BMP180;6126;57.908;16.490;2023-05-06T04:00:56;103084.41;;;-0.14
12126;BMP180;6126;57.908;16.490;2023-05-06T04:03:21;103084.53;;;0.12
12126;BMP180;6126;57.908;16.490;2023-05-06T04:05:48;103082.97;;;0.40
12126;BMP180;6126;57.908;16.490;2023-05-06T04:08:15;103082.06;;;0.62
12126;BMP180;6126;57.908;16.490;2023-05-06T04:10:42;103094.69;;;0.81
12126;BMP180;6126;57.908;16.490;2023-05-06T04:13:07;103091.94;;;1.01
12126;BMP180;6126;57.908;16.490;2023-05-06T04:15:36;103073.69;;;1.22
12126;BMP180;6126;57.908;16.490;2023-05-06T04:18:04;103088.09;;;1.43
12126;BMP180;6126;57.908;16.490;2023-05-06T04:20:32;103090.59;;;1.67
12126;BMP180;6126;57.908;16.490;2023-05-06T04:22:58;103080.66;;;1.81
12126;BMP180;6126;57.908;16.490;2023-05-06T04:25:24;103080.13;;;1.92
12126;BMP180;6126;57.908;16.490;2023-05-06T04:27:50;103086.44;;;2.01
12126;BMP180;6126;57.908;16.490;2023-05-06T04:30:16;103075.41;;;2.07
12126;BMP180;6126;57.908;16.490;2023-05-06T04:32:42;103077.34;;;2.15
12126;BMP180;6126;57.908;16.490;2023-05-06T04:35:08;103069.88;;;2.24
12126;BMP180;6126;57.908;16.490;2023-05-06T04:37:34;103077.84;;;2.31
12126;BMP180;6126;57.908;16.490;2023-05-06T04:40:01;103076.34;;;2.41
12126;BMP180;6126;57.908;16.490;2023-05-06T04:42:28;103070.53;;;2.49
12126;BMP180;6126;57.908;16.490;2023-05-06T04:44:54;103079.41;;;2.58
12126;BMP180;6126;57.908;16.490;2023-05-06T04:47:20;103075.38;;;2.69
12126;BMP180;6126;57.908;16.490;2023-05-06T04:49:46;103073.28;;;2.87
12126;BMP180;6126;57.908;16.490;2023-05-06T04:52:12;103072.69;;;2.98
12126;BMP180;6126;57.908;16.490;2023-05-06T04:54:38;103074.56;;;3.05
12126;BMP180;6126;57.908;16.490;2023-05-06T04:57:04;103068.63;;;3.09
12126;BMP180;6126;57.908;16.490;2023-05-06T04:59:30;103074.75;;;3.12
12126;BMP180;6126;57.908;16.490;2023-05-06T05:01:56;103073.09;;;3.16
12126;BMP180;6126;57.908;16.490;2023-05-06T05:04:22;103067.28;;;3.24
12126;BMP180;6126;57.908;16.490;2023-05-06T05:06:47;103076.00;;;3.29
12126;BMP180;6126;57.908;16.490;2023-05-06T05:09:13;103076.06;;;3.32
12126;BMP180;6126;57.908;16.490;2023-05-06T05:11:39;103077.97;;;3.39
12126;BMP180;6126;57.908;16.490;2023-05-06T05:14:05;103078.09;;;3.45
12126;BMP180;6126;57.908;16.490;2023-05-06T05:16:31;103075.66;;;3.51
12126;BMP180;6126;57.908;16.490;2023-05-06T05:18:57;103085.22;;;3.55
12126;BMP180;6126;57.908;16.490;2023-05-06T05:21:23;103072.41;;;3.59
12126;BMP180;6126;57.908;16.490;2023-05-06T05:23:49;103072.53;;;3.65
12126;BMP180;6126;57.908;16.490;2023-05-06T05:26:14;103076.09;;;3.70
12126;BMP180;6126;57.908;16.490;2023-05-06T05:28:40;103075.44;;;3.81
12126;BMP180;6126;57.908;16.490;2023-05-06T05:31:06;103072.16;;;3.88
12126;BMP180;6126;57.908;16.490;2023-05-06T05:33:32;103070.53;;;3.93
12126;BMP180;6126;57.908;16.490;2023-05-06T05:35:58;103068.19;;;4.05
12126;BMP180;6126;57.908;16.490;2023-05-06T05:38:24;103067.53;;;4.15
12126;BMP180;6126;57.908;16.490;2023-05-06T05:40:50;103072.78;;;4.19
12126;BMP180;6126;57.908;16.490;2023-05-06T05:43:15;103072.84;;;4.22
12126;BMP180;6126;57.908;16.490;2023-05-06T05:45:41;103073.81;;;4.27
12126;BMP180;6126;57.908;16.490;2023-05-06T05:48:07;103077.34;;;4.32
12126;BMP180;6126;57.908;16.490;2023-05-06T05:50:33;103073.09;;;4.35
12126;BMP180;6126;57.908;16.490;2023-05-06T05:52:59;103085.28;;;4.39
12126;BMP180;6126;57.908;16.490;2023-05-06T05:55:27;103073.19;;;4.41
12126;BMP180;6126;57.908;16.490;2023-05-06T05:57:54;103081.16;;;4.50
12126;BMP180;6126;57.908;16.490;2023-05-06T06:00:20;103070.06;;;4.57
12126;BMP180;6126;57.908;16.490;2023-05-06T06:02:46;103077.03;;;4.61
12126;BMP180;6126;57.908;16.490;2023-05-06T06:05:12;103080.53;;;4.63
12126;BMP180;6126;57.908;16.490;2023-05-06T06:07:38;103075.34;;;4.63
12126;BMP180;6126;57.908;16.490;2023-05-06T06:10:04;103071.84;;;4.61
12126;BMP180;6126;57.908;16.490;2023-05-06T06:12:31;103070.13;;;4.60
12126;BMP180;6126;57.908;16.490;2023-05-06T06:14:56;103071.84;;;4.61
12126;BMP180;6126;57.908;16.490;2023-05-06T06:17:22;103077.13;;;4.67
12126;BMP180;6126;57.908;16.490;2023-05-06T06:19:48;103082.44;;;4.73
12126;BMP180;6126;57.908;16.490;2023-05-06T06:22:15;103079.91;;;4.77
12126;BMP180;6126;57.908;16.490;2023-05-06T06:24:42;103071.34;;;4.81
12126;BMP180;6126;57.908;16.490;2023-05-06T06:27:08;103067.13;;;4.86
12126;BMP180;6126;57.908;16.490;2023-05-06T06:29:34;103070.56;;;4.88
12126;BMP180;6126;57.908;16.490;2023-05-06T06:32:02;103075.84;;;4.91
12126;BMP180;6126;57.908;16.490;2023-05-06T06:34:28;103070.66;;;4.92
12126;BMP180;6126;57.908;16.490;2023-05-06T06:36:53;103075.13;;;5.01
12126;BMP180;6126;57.908;16.490;2023-05-06T06:39:19;103074.38;;;5.08
12126;BMP180;6126;57.908;16.490;2023-05-06T06:41:45;103074.47;;;5.12
12126;BMP180;6126;57.908;16.490;2023-05-06T06:44:11;103072.81;;;5.17
12126;BMP180;6126;57.908;16.490;2023-05-06T06:46:37;103080.66;;;5.23
12126;BMP180;6126;57.908;16.490;2023-05-06T06:49:03;103070.34;;;5.26
12126;BMP180;6126;57.908;16.490;2023-05-06T06:51:29;103083.34;;;5.29
12126;BMP180;6126;57.908;16.490;2023-05-06T06:53:56;103080.78;;;5.30
12126;BMP180;6126;57.908;16.490;2023-05-06T06:56:22;103077.38;;;5.33
12126;BMP180;6126;57.908;16.490;2023-05-06T06:58:48;103081.78;;;5.40
12126;BMP180;6126;57.908;16.490;2023-05-06T07:01:14;103082.78;;;5.51
12126;BMP180;6126;57.908;16.490;2023-05-06T07:03:39;103080.34;;;5.59
12126;BMP180;6126;57.908;16.490;2023-05-06T07:06:05;103072.59;;;5.62
12126;BMP180;6126;57.908;16.490;2023-05-06T07:08:31;103069.09;;;5.59
12126;BMP180;6126;57.908;16.490;2023-05-06T07:10:57;103064.78;;;5.59
12126;BMP180;6126;57.908;16.490;2023-05-06T07:13:23;103073.53;;;5.67
12126;BMP180;6126;57.908;16.490;2023-05-06T07:15:49;103056.47;;;5.84
12126;BMP180;6126;57.908;16.490;2023-05-06T07:18:15;103079.00;;;5.86
12126;BMP180;6126;57.908;16.490;2023-05-06T07:20:41;103071.28;;;5.91
12126;BMP180;6126;57.908;16.490;2023-05-06T07:23:07;103073.97;;;6.00
12126;BMP180;6126;57.908;16.490;2023-05-06T07:25:32;103076.53;;;5.97
12126;BMP180;6126;57.908;16.490;2023-05-06T07:27:59;103064.38;;;5.94
12126;BMP180;6126;57.908;16.490;2023-05-06T07:30:25;103070.56;;;6.04
12126;BMP180;6126;57.908;16.490;2023-05-06T07:32:51;103063.75;;;6.12
12126;BMP180;6126;57.908;16.490;2023-05-06T07:35:17;103067.28;;;6.19
12126;BMP180;6126;57.908;16.490;2023-05-06T07:37:46;103073.34;;;6.20
12126;BMP180;6126;57.908;16.490;2023-05-06T07:40:12;103074.19;;;6.16
12126;BMP180;6126;57.908;16.490;2023-05-06T07:42:40;103061.19;;;6.13
12126;BMP180;6126;57.908;16.490;2023-05-06T07:45:06;103053.31;;;6.09
12126;BMP180;6126;57.908;16.490;2023-05-06T07:47:33;103065.41;;;6.07
12126;BMP180;6126;57.908;16.490;2023-05-06T07:49:59;103059.25;;;5.99
12126;BMP180;6126;57.908;16.490;2023-05-06T07:52:25;103063.50;;;5.91
12126;BMP180;6126;57.908;16.490;2023-05-06T07:54:52;103063.50;;;5.91
12126;BMP180;6126;57.908;16.490;2023-05-06T07:57:18;103063.50;;;5.91
12126;BMP180;6126;57.908;16.490;2023-05-06T07:59:49;103054.03;;;5.96
12126;BMP180;6126;57.908;16.490;2023-05-06T08:02:16;103045.38;;;5.97
12126;BMP180;6126;57.908;16.490;2023-05-06T08:04:42;103048.88;;;5.99
12126;BMP180;6126;57.908;16.490;2023-05-06T08:07:09;103056.75;;;6.08
12126;BMP180;6126;57.908;16.490;2023-05-06T08:09:35;103051.72;;;6.19
12126;BMP180;6126;57.908;16.490;2023-05-06T08:12:01;103063.09;;;6.33
12126;BMP180;6126;57.908;16.490;2023-05-06T08:14:27;103050.16;;;6.35
12126;BMP180;6126;57.908;16.490;2023-05-06T08:16:53;103045.75;;;6.31
12126;BMP180;6126;57.908;16.490;2023-05-06T08:19:20;103046.81;;;6.45
12126;BMP180;6126;57.908;16.490;2023-05-06T08:21:47;103041.63;;;6.47
12126;BMP180;6126;57.908;16.490;2023-05-06T08:24:13;103045.03;;;6.44
12126;BMP180;6126;57.908;16.490;2023-05-06T08:26:40;103047.75;;;6.52
12126;BMP180;6126;57.908;16.490;2023-05-06T08:29:06;103040.13;;;6.75
12126;BMP180;6126;57.908;16.490;2023-05-06T08:31:33;103042.84;;;6.88
12126;BMP180;6126;57.908;16.490;2023-05-06T08:33:59;103045.47;;;6.92
12126;BMP180;6126;57.908;16.490;2023-05-06T08:36:25;103042.88;;;6.92
12126;BMP180;6126;57.908;16.490;2023-05-06T08:38:51;103035.88;;;6.84
12126;BMP180;6126;57.908;16.490;2023-05-06T08:41:18;103043.63;;;6.79
12126;BMP180;6126;57.908;16.490;2023-05-06T08:43:48;103030.69;;;6.84
12126;BMP180;6126;57.908;16.490;2023-05-06T08:46:16;103036.72;;;6.81
12126;BMP180;6126;57.908;16.490;2023-05-06T08:48:42;103031.50;;;6.78
12126;BMP180;6126;57.908;16.490;2023-05-06T08:51:11;103036.72;;;6.78
12126;BMP180;6126;57.908;16.490;2023-05-06T08:53:42;103034.22;;;6.93
12126;BMP180;6126;57.908;16.490;2023-05-06T08:56:12;103032.50;;;6.94
12126;BMP180;6126;57.908;16.490;2023-05-06T08:58:43;103022.94;;;6.93
12126;BMP180;6126;57.908;16.490;2023-05-06T09:01:10;103014.38;;;7.08
12126;BMP180;6126;57.908;16.490;2023-05-06T09:03:36;103027.56;;;7.31
12126;BMP180;6126;57.908;16.490;2023-05-06T09:06:04;103020.72;;;7.46
12126;BMP180;6126;57.908;16.490;2023-05-06T09:08:30;103025.91;;;7.47
12126;BMP180;6126;57.908;16.490;2023-05-06T09:10:56;103031.97;;;7.46
12126;BMP180;6126;57.908;16.490;2023-05-06T09:13:22;103014.66;;;7.48
12126;BMP180;6126;57.908;16.490;2023-05-06T09:15:52;103030.19;;;7.37
12126;BMP180;6126;57.908;16.490;2023-05-06T09:18:18;103032.78;;;7.39
12126;BMP180;6126;57.908;16.490;2023-05-06T09:20:47;103028.56;;;7.56
12126;BMP180;6126;57.908;16.490;2023-05-06T09:23:16;103032.94;;;7.62
12126;BMP180;6126;57.908;16.490;2023-05-06T09:25:45;103018.16;;;7.58
12126;BMP180;6126;57.908;16.490;2023-05-06T09:28:12;103021.72;;;7.79
12126;BMP180;6126;57.908;16.490;2023-05-06T09:30:42;103016.53;;;7.82
12126;BMP180;6126;57.908;16.490;2023-05-06T09:33:08;103020.00;;;7.84
12126;BMP180;6126;57.908;16.490;2023-05-06T09:35:39;103013.97;;;7.97
12126;BMP180;6126;57.908;16.490;2023-05-06T09:38:07;103001.06;;;8.19
12126;BMP180;6126;57.908;16.490;2023-05-06T09:40:35;102991.50;;;8.28
12126;BMP180;6126;57.908;16.490;2023-05-06T09:43:01;103001.91;;;8.16
12126;BMP180;6126;57.908;16.490;2023-05-06T09:45:28;102993.22;;;8.22
12126;BMP180;6126;57.908;16.490;2023-05-06T09:47:56;102998.44;;;8.20
12126;BMP180;6126;57.908;16.490;2023-05-06T09:50:24;102998.44;;;8.16
12126;BMP180;6126;57.908;16.490;2023-05-06T09:52:50;102986.22;;;8.04
12126;BMP180;6126;57.908;16.490;2023-05-06T09:55:21;102991.50;;;8.16
12126;BMP180;6126;57.908;16.490;2023-05-06T09:57:48;102984.56;;;8.37
12126;BMP180;6126;57.908;16.490;2023-05-06T10:00:15;102985.44;;;8.29
12126;BMP180;6126;57.908;16.490;2023-05-06T10:02:44;102982.81;;;8.30
12126;BMP180;6126;57.908;16.490;2023-05-06T10:05:12;102993.28;;;8.50
12126;BMP180;6126;57.908;16.490;2023-05-06T10:07:39;102987.19;;;8.68
12126;BMP180;6126;57.908;16.490;2023-05-06T10:10:10;102975.00;;;8.87
12126;BMP180;6126;57.908;16.490;2023-05-06T10:12:37;102976.75;;;8.77
12126;BMP180;6126;57.908;16.490;2023-05-06T10:15:04;102981.97;;;8.68
12126;BMP180;6126;57.908;16.490;2023-05-06T10:17:32;102973.28;;;8.69
12126;BMP180;6126;57.908;16.490;2023-05-06T10:20:00;102970.69;;;8.61
12126;BMP180;6126;57.908;16.490;2023-05-06T10:28:10;102964.59;;;8.61
12126;BMP180;6126;57.908;16.490;2023-05-06T10:30:38;102963.72;;;8.58
12126;BMP180;6126;57.908;16.490;2023-05-06T10:33:08;102963.75;;;8.62
12126;BMP180;6126;57.908;16.490;2023-05-06T10:38:40;102948.91;;;8.90
12126;BMP180;6126;57.908;16.490;2023-05-06T10:41:08;102949.75;;;9.08
12126;BMP180;6126;57.908;16.490;2023-05-06T10:43:40;102944.50;;;9.25
12126;BMP180;6126;57.908;16.490;2023-05-06T10:51:30;102938.34;;;9.41
12126;BMP180;6126;57.908;16.490;2023-05-06T10:54:09;102944.41;;;9.45
12126;BMP180;6126;57.908;16.490;2023-05-06T10:56:38;102941.84;;;9.34
12126;BMP180;6126;57.908;16.490;2023-05-06T10:59:09;102936.66;;;9.30
12126;BMP180;6126;57.908;16.490;2023-05-06T11:01:42;102931.44;;;9.28
12126;BMP180;6126;57.908;16.490;2023-05-06T11:04:13;102927.09;;;9.23
12126;BMP180;6126;57.908;16.490;2023-05-06T11:06:48;102931.41;;;9.31
12126;BMP180;6126;57.908;16.490;2023-05-06T11:09:23;102932.31;;;9.27
12126;BMP180;6126;57.908;16.490;2023-05-06T11:12:03;102931.50;;;9.08
12126;BMP180;6126;57.908;16.490;2023-05-06T11:14:35;102928.00;;;9.06
12126;BMP180;6126;57.908;16.490;2023-05-06T11:17:30;102914.13;;;9.02
12126;BMP180;6126;57.908;16.490;2023-05-06T11:20:22;102907.16;;;9.03
12126;BMP180;6126;57.908;16.490;2023-05-06T11:22:49;102919.34;;;8.95
12126;BMP180;6126;57.908;16.490;2023-05-06T11:25:43;102920.22;;;8.85
12126;BMP180;6126;57.908;16.490;2023-05-06T11:28:13;102904.59;;;8.90
12126;BMP180;6126;57.908;16.490;2023-05-06T11:30:42;102916.78;;;8.86
12126;BMP180;6126;57.908;16.490;2023-05-06T11:33:17;102903.72;;;8.80
12126;BMP180;6126;57.908;16.490;2023-05-06T11:35:44;102905.50;;;8.78
12126;BMP180;6126;57.908;16.490;2023-05-06T11:38:11;102906.34;;;8.82
12126;BMP180;6126;57.908;16.490;2023-05-06T11:40:37;102910.66;;;8.92
12126;BMP180;6126;57.908;16.490;2023-05-06T11:43:14;102907.13;;;9.09
12126;BMP180;6126;57.908;16.490;2023-05-06T11:45:46;102891.41;;;9.32
12126;BMP180;6126;57.908;16.490;2023-05-06T11:48:17;102891.34;;;9.41
12126;BMP180;6126;57.908;16.490;2023-05-06T11:50:52;102896.50;;;9.53
12126;BMP180;6126;57.908;16.490;2023-05-06T11:53:22;102892.88;;;9.78
12126;BMP180;6126;57.908;16.490;2023-05-06T11:55:51;102892.84;;;9.92
12126;BMP180;6126;57.908;16.490;2023-05-06T11:58:23;102899.78;;;9.93
12126;BMP180;6126;57.908;16.490;2023-05-06T12:00:57;102897.16;;;9.92
12126;BMP180;6126;57.908;16.490;2023-05-06T12:03:25;102910.19;;;9.99
12126;BMP180;6126;57.908;16.490;2023-05-06T12:05:52;102897.09;;;10.05
12126;BMP180;6126;57.908;16.490;2023-05-06T12:08:27;102895.31;;;10.07
12126;BMP180;6126;57.908;16.490;2023-05-06T12:11:00;102894.47;;;10.02
12126;BMP180;6126;57.908;16.490;2023-05-06T12:13:28;102898.78;;;10.14
12126;BMP180;6126;57.908;16.490;2023-05-06T12:15:57;102890.06;;;10.12
12126;BMP180;6126;57.908;16.490;2023-05-06T12:18:23;102893.59;;;10.08
12126;BMP180;6126;57.908;16.490;2023-05-06T12:20:53;102886.50;;;10.21
12126;BMP180;6126;57.908;16.490;2023-05-06T12:23:19;102892.53;;;10.28
12126;BMP180;6126;57.908;16.490;2023-05-06T12:26:04;102895.13;;;10.32
12126;BMP180;6126;57.908;16.490;2023-05-06T12:28:32;102890.84;;;10.24
12126;BMP180;6126;57.908;16.490;2023-05-06T12:30:59;102890.88;;;10.19
12126;BMP180;6126;57.908;16.490;2023-05-06T12:33:25;102887.47;;;10.13
12126;BMP180;6126;57.908;16.490;2023-05-06T12:35:50;102889.25;;;10.04
12126;BMP180;6126;57.908;16.490;2023-05-06T12:38:19;102900.59;;;10.00
12126;BMP180;6126;57.908;16.490;2023-05-06T12:40:53;102893.66;;;9.94
12126;BMP180;6126;57.908;16.490;2023-05-06T12:43:28;102885.88;;;9.85
12126;BMP180;6126;57.908;16.490;2023-05-06T12:46:07;102898.06;;;9.83
12126;BMP180;6126;57.908;16.490;2023-05-06T12:48:34;102891.09;;;9.87
12126;BMP180;6126;57.908;16.490;2023-05-06T12:51:00;102888.50;;;9.81
12126;BMP180;6126;57.908;16.490;2023-05-06T12:53:41;102893.66;;;9.96
12126;BMP180;6126;57.908;16.490;2023-05-06T12:56:07;102878.81;;;10.04
12126;BMP180;6126;57.908;16.490;2023-05-06T12:58:32;102894.50;;;10.05
12126;BMP180;6126;57.908;16.490;2023-05-06T13:01:02;102882.34;;;9.98
12126;BMP180;6126;57.908;16.490;2023-05-06T13:03:28;102880.59;;;10.00
12126;BMP180;6126;57.908;16.490;2023-05-06T13:05:54;102870.09;;;10.03
12126;BMP180;6126;57.908;16.490;2023-05-06T13:08:20;102872.72;;;10.02
12126;BMP180;6126;57.908;16.490;2023-05-06T13:10:46;102867.34;;;10.18
12126;BMP180;6126;57.908;16.490;2023-05-06T13:13:12;102877.00;;;10.13
12126;BMP180;6126;57.908;16.490;2023-05-06T13:15:38;102871.88;;;9.98
12126;BMP180;6126;57.908;16.490;2023-05-06T13:18:04;102873.66;;;9.95
12126;BMP180;6126;57.908;16.490;2023-05-06T13:20:31;102870.19;;;9.85
12126;BMP180;6126;57.908;16.490;2023-05-06T13:22:57;102865.06;;;9.77
12126;BMP180;6126;57.908;16.490;2023-05-06T13:25:23;102872.03;;;9.75
12126;BMP180;6126;57.908;16.490;2023-05-06T13:27:48;102869.38;;;9.82
12126;BMP180;6126;57.908;16.490;2023-05-06T13:30:14;102870.25;;;9.80
12126;BMP180;6126;57.908;16.490;2023-05-06T13:32:41;102872.06;;;9.67
12126;BMP180;6126;57.908;16.490;2023-05-06T13:35:07;102865.13;;;9.60
12126;BMP180;6126;57.908;16.490;2023-05-06T13:37:33;102862.50;;;9.65
12126;BMP180;6126;57.908;16.490;2023-05-06T13:39:59;102858.94;;;9.78
12126;BMP180;6126;57.908;16.490;2023-05-06T13:42:25;102855.47;;;9.76
12126;BMP180;6126;57.908;16.490;2023-05-06T13:44:51;102859.75;;;9.85
12126;BMP180;6126;57.908;16.490;2023-05-06T13:47:17;102857.09;;;9.97
12126;BMP180;6126;57.908;16.490;2023-05-06T13:49:43;102852.69;;;10.02
12126;BMP180;6126;57.908;16.490;2023-05-06T13:52:08;102848.44;;;9.91
12126;BMP180;6126;57.908;16.490;2023-05-06T13:54:34;102848.47;;;9.82
12126;BMP180;6126;57.908;16.490;2023-05-06T13:57:00;102844.97;;;9.83
12126;BMP180;6126;57.908;16.490;2023-05-06T13:59:27;102847.59;;;9.84
12126;BMP180;6126;57.908;16.490;2023-05-06T14:01:53;102835.53;;;9.63
12126;BMP180;6126;57.908;16.490;2023-05-06T14:04:20;102830.28;;;9.66
12126;BMP180;6126;57.908;16.490;2023-05-06T14:06:46;102836.38;;;9.69
12126;BMP180;6126;57.908;16.490;2023-05-06T14:09:12;102824.22;;;9.64
12126;BMP180;6126;57.908;16.490;2023-05-06T14:11:38;102827.69;;;9.64
12126;BMP180;6126;57.908;16.490;2023-05-06T14:14:04;102836.34;;;9.72
12126;BMP180;6126;57.908;16.490;2023-05-06T14:16:31;102827.66;;;9.70
12126;BMP180;6126;57.908;16.490;2023-05-06T14:18:58;102829.38;;;9.71
12126;BMP180;6126;57.908;16.490;2023-05-06T14:21:24;102836.34;;;9.71
12126;BMP180;6126;57.908;16.490;2023-05-06T14:23:50;102838.03;;;9.78
12126;BMP180;6126;57.908;16.490;2023-05-06T14:26:16;102827.56;;;9.82